Time;durP1;ratioP1;P1;durP2;ratioP2;P2;SDS_P1;SDS_P2;PMS_P1;PMS_P2;Temp;Humidity;BMP_temperature;BMP_pressure;BME280_temperature;BME280_humidity;BME280_pressure;Samples;Min_cycle;Max_cycle;Signal;HPM_P1;HPM_P2
2022/08/29 00:01:14;;;;;;;16.25;11.85;;;;;;;17.61;93.31;96477.38;4991758;28;20046;-79
2022/08/29 00:03:41;;;;;;;13.25;10.63;;;;;;;17.58;93.65;96467.06;4992499;28;20046;-79
2022/08/29 00:06:07;;;;;;;14.30;10.23;;;;;;;17.56;93.88;96463.91;4991834;28;20054;-78
2022/08/29 00:08:34;;;;;;;13.55;11.10;;;;;;;17.59;93.86;96463.97;4992121;28;20042;-79
2022/08/29 00:11:00;;;;;;;15.45;11.75;;;;;;;17.55;92.48;96457.59;4991618;28;20057;-79
2022/08/29 00:13:27;;;;;;;13.90;11.32;;;;;;;17.48;92.43;96460.97;4991764;28;20042;-79
2022/08/29 00:15:55;;;;;;;14.20;11.45;;;;;;;17.42;92.42;96459.66;4992283;28;20552;-79
2022/08/29 00:18:21;;;;;;;15.52;10.18;;;;;;;17.41;93.00;96457.28;4990149;28;20054;-79
2022/08/29 00:20:48;;;;;;;17.25;11.25;;;;;;;17.41;93.03;96458.06;4991810;28;20049;-79
2022/08/29 00:23:15;;;;;;;15.65;12.38;;;;;;;17.36;93.03;96458.34;4990639;28;20054;-78
2022/08/29 00:25:42;;;;;;;16.45;11.48;;;;;;;17.32;93.33;96467.69;5004645;28;20049;-81
2022/08/29 00:28:08;;;;;;;13.00;10.52;;;;;;;17.30;93.49;96459.00;5011151;28;20045;-80
2022/08/29 00:30:36;;;;;;;13.52;10.70;;;;;;;17.32;93.96;96459.41;5011228;28;20042;-80
2022/08/29 00:33:04;;;;;;;15.07;11.70;;;;;;;17.37;93.90;96462.69;5010552;28;20050;-80
2022/08/29 00:35:33;;;;;;;14.20;11.27;;;;;;;17.34;93.78;96471.69;5011117;28;20045;-80
2022/08/29 00:38:02;;;;;;;13.55;10.93;;;;;;;17.23;93.80;96467.91;5011315;28;20101;-80
2022/08/29 00:40:33;;;;;;;17.67;12.27;;;;;;;17.07;93.96;96475.34;5011120;28;20402;-80
2022/08/29 00:43:02;;;;;;;15.95;11.80;;;;;;;17.03;94.16;96480.00;5011449;28;20045;-79
2022/08/29 00:45:29;;;;;;;15.63;11.23;;;;;;;16.94;94.57;96472.72;5010974;28;20042;-79
2022/08/29 00:48:00;;;;;;;15.68;11.77;;;;;;;17.03;94.55;96477.25;5011123;28;20048;-80
2022/08/29 00:50:32;;;;;;;13.70;11.20;;;;;;;17.04;94.17;96467.81;5011114;28;20053;-79
2022/08/29 00:53:01;;;;;;;16.35;11.98;;;;;;;16.92;94.39;96477.78;5011122;28;20053;-78
2022/08/29 00:55:30;;;;;;;14.70;11.32;;;;;;;16.94;94.54;96466.41;4998009;28;20046;-78
2022/08/29 00:58:01;;;;;;;13.93;11.65;;;;;;;16.91;94.47;96467.94;4991754;28;20050;-79
2022/08/29 01:00:28;;;;;;;14.23;10.88;;;;;;;16.90;94.63;96476.53;4990937;28;20042;-79
2022/08/29 01:02:55;;;;;;;18.45;12.82;;;;;;;16.71;95.25;96466.25;4991413;28;20109;-79
2022/08/29 01:05:24;;;;;;;16.27;11.25;;;;;;;16.55;96.13;96477.22;4991084;28;20057;-78
2022/08/29 01:07:52;;;;;;;17.27;12.20;;;;;;;16.55;96.17;96459.91;4991774;28;20043;-79
2022/08/29 01:13:04;;;;;;;16.08;11.93;;;;;;;16.49;96.44;96472.31;4968497;28;20050;-77
2022/08/29 01:15:33;;;;;;;15.88;12.00;;;;;;;16.55;96.13;96465.41;4991500;28;20043;-79
2022/08/29 01:18:02;;;;;;;16.08;11.77;;;;;;;16.63;95.87;96464.44;4991481;28;20046;-80
2022/08/29 01:20:38;;;;;;;13.95;10.35;;;;;;;16.70;95.27;96470.09;4991275;28;20406;-79
2022/08/29 01:23:13;;;;;;;12.98;10.05;;;;;;;16.70;95.10;96473.69;4996558;28;20070;-78
2022/08/29 01:25:45;;;;;;;14.27;10.68;;;;;;;16.73;94.18;96472.19;4993585;28;20046;-79
2022/08/29 01:28:18;;;;;;;15.77;10.65;;;;;;;16.64;93.77;96471.53;4990982;28;20046;-79
2022/08/29 01:31:00;;;;;;;13.55;10.65;;;;;;;16.61;94.11;96464.00;4991527;28;20049;-78
2022/08/29 01:33:33;;;;;;;17.75;11.57;;;;;;;16.60;93.91;96463.22;4989916;28;20501;-79
2022/08/29 01:35:59;;;;;;;16.30;10.25;;;;;;;16.54;94.13;96461.06;4990958;28;20057;-79
2022/08/29 01:38:27;;;;;;;16.67;11.88;;;;;;;16.51;94.43;96470.03;4990609;28;20042;-79
2022/08/29 01:40:57;;;;;;;13.77;10.35;;;;;;;16.55;94.95;96470.91;4991144;28;20050;-79
2022/08/29 01:43:25;;;;;;;13.55;10.40;;;;;;;16.55;94.62;96466.22;4990601;28;20046;-79
2022/08/29 01:45:52;;;;;;;12.55;10.13;;;;;;;16.60;95.00;96467.88;4995124;28;20054;-79
2022/08/29 01:48:20;;;;;;;13.32;10.80;;;;;;;16.59;94.76;96466.28;4994145;28;20049;-79
2022/08/29 01:50:47;;;;;;;14.88;11.15;;;;;;;16.59;94.11;96458.03;4995053;28;20042;-78
2022/08/29 01:53:15;;;;;;;16.70;10.82;;;;;;;16.56;93.71;96467.00;4994708;28;20042;-78
2022/08/29 01:55:42;;;;;;;14.10;10.98;;;;;;;16.56;93.95;96461.53;5011240;28;20607;-79
2022/08/29 01:58:10;;;;;;;13.88;10.90;;;;;;;16.54;93.98;96461.06;5014166;28;20042;-78
2022/08/29 02:00:37;;;;;;;15.30;10.25;;;;;;;16.54;93.91;96459.09;5014367;28;20049;-78
2022/08/29 02:03:04;;;;;;;13.90;10.70;;;;;;;16.58;94.22;96464.69;5013981;28;20497;-78
2022/08/29 02:05:31;;;;;;;15.25;11.13;;;;;;;16.58;93.49;96464.69;5014333;28;20077;-78
2022/08/29 02:07:57;;;;;;;18.40;11.20;;;;;;;16.53;93.34;96467.72;5014304;28;20046;-79
2022/08/29 02:10:24;;;;;;;16.08;10.55;;;;;;;16.50;93.48;96462.94;5015521;28;20045;-79
2022/08/29 02:12:52;;;;;;;15.68;10.80;;;;;;;16.38;93.46;96464.59;5020673;28;20050;-78
2022/08/29 02:15:20;;;;;;;14.63;10.55;;;;;;;16.38;93.49;96463.78;5023251;28;20065;-78
2022/08/29 02:17:47;;;;;;;13.07;9.95;;;;;;;16.43;93.73;96461.56;5024114;28;20069;-79
2022/08/29 02:20:13;;;;;;;15.85;10.85;;;;;;;16.45;93.59;96466.75;5025011;28;20050;-78
2022/08/29 02:22:41;;;;;;;15.80;11.38;;;;;;;16.27;92.74;96471.75;5025713;28;20125;-79
2022/08/29 02:27:51;;;;;;;12.17;9.00;;;;;;;16.29;92.91;96469.47;5025711;28;20330;-78
2022/08/29 02:30:18;;;;;;;9.80;7.68;;;;;;;16.30;93.06;96468.31;5019251;28;20070;-79
2022/08/29 02:32:46;;;;;;;10.27;7.88;;;;;;;16.30;93.08;96467.50;5017649;28;20037;-78
2022/08/29 02:35:14;;;;;;;14.60;8.88;;;;;;;16.29;93.18;96468.66;5016425;28;20045;-77
2022/08/29 02:37:41;;;;;;;10.07;7.75;;;;;;;16.30;92.84;96465.56;5016467;28;20057;-78
2022/08/29 02:40:09;;;;;;;13.48;9.10;;;;;;;16.27;92.95;96463.50;5016658;28;20072;-79
2022/08/29 02:42:35;;;;;;;14.55;9.00;;;;;;;16.15;92.52;96460.84;5016185;28;20049;-78
2022/08/29 02:45:02;;;;;;;10.70;8.40;;;;;;;16.16;92.35;96465.16;5015910;28;20073;-77
2022/08/29 02:47:28;;;;;;;12.25;8.13;;;;;;;16.18;92.51;96455.44;5016131;28;20093;-78
2022/08/29 02:49:57;;;;;;;10.23;7.55;;;;;;;16.15;92.29;96463.59;5016357;28;20046;-80
2022/08/29 02:52:24;;;;;;;11.25;8.10;;;;;;;16.16;92.19;96459.69;5015326;28;20059;-81
2022/08/29 02:54:50;;;;;;;9.65;7.57;;;;;;;16.18;92.36;96462.88;5007478;28;20046;-80
2022/08/29 02:57:16;;;;;;;15.02;8.85;;;;;;;16.16;91.83;96460.47;4995662;28;20057;-82
2022/08/29 02:59:43;;;;;;;9.80;7.50;;;;;;;16.11;91.97;96465.44;4995911;28;20049;-80
2022/08/29 03:02:09;;;;;;;9.95;6.65;;;;;;;16.10;91.97;96466.59;4994972;28;20054;-79
2022/08/29 03:04:36;;;;;;;11.40;8.35;;;;;;;16.03;91.92;96469.94;4995888;28;20077;-79
2022/08/29 03:07:05;;;;;;;10.15;7.50;;;;;;;16.01;92.17;96468.69;4994840;28;20054;-79
2022/08/29 03:09:31;;;;;;;13.48;8.52;;;;;;;16.03;92.40;96460.91;4994690;28;20046;-80
2022/08/29 03:11:58;;;;;;;10.60;7.45;;;;;;;16.08;92.75;96463.41;4995122;28;20074;-79
2022/08/29 03:14:26;;;;;;;11.40;7.60;;;;;;;16.07;92.46;96467.28;4994514;28;20054;-78
2022/08/29 03:16:53;;;;;;;11.93;8.15;;;;;;;16.08;92.58;96471.63;4995288;28;20050;-78
2022/08/29 03:19:19;;;;;;;9.43;7.10;;;;;;;16.06;92.69;96469.22;4994335;28;20042;-78
2022/08/29 03:21:46;;;;;;;9.98;7.93;;;;;;;16.08;91.65;96474.38;4995328;28;20061;-79
2022/08/29 03:24:14;;;;;;;9.02;7.30;;;;;;;16.00;91.11;96469.84;4999470;28;20052;-79
2022/08/29 03:26:40;;;;;;;9.38;7.30;;;;;;;16.00;91.71;96472.56;4994369;28;20045;-78
2022/08/29 03:29:08;;;;;;;9.57;6.68;;;;;;;15.98;91.37;96470.19;4993962;28;20043;-78
2022/08/29 03:31:35;;;;;;;9.50;7.22;;;;;;;15.93;91.49;96477.88;4994842;28;20054;-79
2022/08/29 03:34:01;;;;;;;8.68;7.00;;;;;;;15.89;91.89;96480.53;4994740;28;20690;-79
2022/08/29 03:36:28;;;;;;;10.48;7.93;;;;;;;15.88;92.14;96482.47;4993945;28;20406;-79
2022/08/29 03:38:54;;;;;;;13.20;8.27;;;;;;;15.85;92.43;96483.16;4994087;28;20043;-79
2022/08/29 03:41:25;;;;;;;10.30;7.07;;;;;;;15.92;92.64;96488.03;4994029;28;20054;-79
2022/08/29 03:43:54;;;;;;;10.18;7.40;;;;;;;15.88;92.66;96482.47;4994464;28;20116;-79
2022/08/29 03:46:20;;;;;;;9.88;7.07;;;;;;;15.83;92.98;96485.47;4993517;28;20505;-78
2022/08/29 03:48:47;;;;;;;8.32;6.68;;;;;;;15.82;92.65;96494.84;4993866;28;20042;-79
2022/08/29 03:51:14;;;;;;;9.90;6.60;;;;;;;15.78;92.48;96498.63;4993727;28;20054;-80
2022/08/29 03:53:41;;;;;;;10.15;6.60;;;;;;;15.81;91.85;96490.47;4997626;28;20045;-79
2022/08/29 03:56:08;;;;;;;8.65;6.43;;;;;;;15.81;91.38;96486.94;5012318;28;20050;-78
2022/08/29 03:58:36;;;;;;;9.23;5.95;;;;;;;15.82;91.28;96483.88;5013044;28;20046;-79
2022/08/29 04:01:03;;;;;;;7.47;6.03;;;;;;;15.80;91.80;96485.34;5012525;28;20050;-78
2022/08/29 04:03:30;;;;;;;10.40;6.38;;;;;;;15.72;92.04;96489.84;5013196;28;20042;-79
2022/08/29 04:05:56;;;;;;;9.23;6.00;;;;;;;15.65;92.20;96495.13;5013116;28;20073;-79
2022/08/29 04:08:23;;;;;;;7.97;5.18;;;;;;;15.70;92.26;96497.63;5011666;28;20497;-78
2022/08/29 04:10:49;;;;;;;8.07;5.40;;;;;;;15.62;92.04;96493.84;5012784;28;20052;-79
2022/08/29 04:13:16;;;;;;;6.18;5.00;;;;;;;15.65;91.81;96495.91;5004408;28;20108;-79
2022/08/29 04:15:44;;;;;;;10.55;5.93;;;;;;;15.70;92.09;96492.13;5025554;28;20049;-78
2022/08/29 04:18:11;;;;;;;7.22;5.55;;;;;;;15.67;92.25;96492.84;5012264;28;20133;-78
2022/08/29 04:20:40;;;;;;;7.00;5.70;;;;;;;15.67;91.73;96498.31;5012897;28;20052;-79
2022/08/29 04:23:11;;;;;;;8.45;5.05;;;;;;;15.65;92.27;96500.59;5011866;28;20112;-78
2022/08/29 04:25:41;;;;;;;6.30;5.25;;;;;;;15.64;92.31;96496.25;4992352;28;20417;-79
2022/08/29 04:28:10;;;;;;;6.40;4.57;;;;;;;15.66;92.53;96494.00;4992721;28;20050;-80
2022/08/29 04:30:38;;;;;;;8.77;5.75;;;;;;;15.71;92.70;96499.22;4993078;28;20046;-79
2022/08/29 04:33:06;;;;;;;7.18;5.82;;;;;;;15.66;91.07;96496.72;4992727;28;20050;-78
2022/08/29 04:35:34;;;;;;;7.38;4.95;;;;;;;15.62;90.71;96495.78;4992802;28;20046;-79
2022/08/29 04:38:00;;;;;;;5.93;4.90;;;;;;;15.61;90.63;96505.19;4992329;28;20053;-80
2022/08/29 04:40:27;;;;;;;10.40;5.35;;;;;;;15.60;90.86;96503.56;4992594;28;20045;-79
2022/08/29 04:42:53;;;;;;;7.03;5.47;;;;;;;15.57;90.94;96498.78;4992455;28;20054;-79
2022/08/29 04:45:22;;;;;;;8.60;5.63;;;;;;;15.54;91.28;96497.50;4991929;28;20072;-79
2022/08/29 04:47:49;;;;;;;7.47;5.03;;;;;;;15.53;91.65;96501.41;4992559;28;20049;-79
2022/08/29 04:50:19;;;;;;;9.38;5.57;;;;;;;15.54;91.92;96511.22;4992009;28;20047;-79
2022/08/29 04:52:46;;;;;;;6.97;5.00;;;;;;;15.51;92.22;96509.19;4992337;28;20047;-79
2022/08/29 04:55:14;;;;;;;8.50;5.68;;;;;;;15.48;92.01;96515.38;4991928;28;20058;-79
2022/08/29 04:57:41;;;;;;;6.97;5.85;;;;;;;15.45;92.12;96518.00;4992222;28;20047;-79
2022/08/29 05:00:12;;;;;;;6.35;4.88;;;;;;;15.45;92.14;96512.50;4991812;28;20521;-78
2022/08/29 05:02:40;;;;;;;6.95;4.72;;;;;;;15.49;92.10;96518.91;4992182;28;20069;-79
2022/08/29 05:05:08;;;;;;;9.10;6.07;;;;;;;15.40;92.52;96528.06;4991898;28;20050;-79
2022/08/29 05:07:36;;;;;;;8.20;5.65;;;;;;;15.37;92.65;96523.28;4991966;28;20406;-79
2022/08/29 05:10:06;;;;;;;7.60;5.30;;;;;;;15.44;92.33;96524.63;4991813;28;20047;-79
2022/08/29 05:12:33;;;;;;;10.02;5.20;;;;;;;15.46;92.10;96530.59;4991978;28;20046;-78
2022/08/29 05:15:00;;;;;;;9.02;5.85;;;;;;;15.48;92.10;96531.81;4991926;28;20050;-79
2022/08/29 05:17:27;;;;;;;9.40;5.63;;;;;;;15.37;91.90;96528.75;4991415;28;20046;-79
2022/08/29 05:19:54;;;;;;;10.13;6.13;;;;;;;15.32;92.05;96534.47;4992218;28;20057;-79
2022/08/29 05:22:22;;;;;;;10.48;6.80;;;;;;;15.19;92.60;96532.91;4991703;28;20114;-79
2022/08/29 05:24:50;;;;;;;9.20;6.18;;;;;;;15.17;93.05;96539.84;4992048;28;20047;-79
2022/08/29 05:27:18;;;;;;;9.02;6.50;;;;;;;15.15;93.43;96537.47;4991084;28;20074;-79
2022/08/29 05:29:47;;;;;;;9.10;5.90;;;;;;;15.28;93.20;96535.50;4991994;28;20497;-79
2022/08/29 05:32:14;;;;;;;12.93;6.15;;;;;;;15.29;93.64;96531.59;4991612;28;20054;-79
2022/08/29 05:34:43;;;;;;;9.50;6.40;;;;;;;15.29;93.66;96531.59;4992024;28;20049;-79
2022/08/29 05:37:13;;;;;;;9.07;5.57;;;;;;;15.46;93.14;96544.31;4991250;28;20038;-78
2022/08/29 05:39:41;;;;;;;10.88;5.88;;;;;;;15.46;93.44;96541.56;4991998;28;20047;-78
2022/08/29 05:42:10;;;;;;;8.43;5.63;;;;;;;15.61;93.37;96532.63;4991877;28;20062;-78
2022/08/29 05:44:39;;;;;;;9.38;6.57;;;;;;;15.67;93.17;96536.75;4992342;28;20409;-81
2022/08/29 05:47:08;;;;;;;11.73;6.72;;;;;;;15.73;93.61;96535.38;4991715;28;20061;-78
2022/08/29 05:49:35;;;;;;;10.10;6.03;;;;;;;15.68;93.20;96532.84;4990881;28;20049;-75
2022/08/29 05:52:02;;;;;;;9.55;5.57;;;;;;;15.78;92.66;96537.88;4990385;28;20465;-75
2022/08/29 05:54:28;;;;;;;8.80;6.65;;;;;;;15.73;93.39;96534.56;4991082;28;20053;-77
2022/08/29 05:56:55;;;;;;;8.27;5.97;;;;;;;15.86;93.37;96536.91;4990896;28;20046;-75
2022/08/29 05:59:23;;;;;;;13.65;6.32;;;;;;;16.01;93.39;96545.59;4990346;28;20204;-77
2022/08/29 06:01:49;;;;;;;8.82;6.00;;;;;;;16.10;92.78;96546.25;4990793;28;20049;-76
2022/08/29 06:04:16;;;;;;;10.32;6.78;;;;;;;16.25;93.12;96545.50;4989996;28;20046;-75
2022/08/29 06:06:42;;;;;;;8.80;6.32;;;;;;;16.25;92.57;96545.50;4990628;28;20050;-75
2022/08/29 06:09:10;;;;;;;12.45;7.63;;;;;;;16.18;93.47;96554.34;4990569;28;20046;-78
2022/08/29 06:11:37;;;;;;;17.35;7.97;;;;;;;16.34;93.57;96548.09;4990574;28;20412;-77
2022/08/29 06:14:03;;;;;;;13.68;8.00;;;;;;;16.39;93.07;96545.91;4990480;28;20118;-77
2022/08/29 06:16:32;;;;;;;17.10;8.48;;;;;;;16.44;92.74;96553.06;4990767;28;20051;-77
2022/08/29 06:18:59;;;;;;;22.17;10.95;;;;;;;16.36;92.59;96554.84;4990830;28;20048;-78
2022/08/29 06:21:26;;;;;;;23.30;14.63;;;;;;;16.44;93.67;96553.91;4990247;28;20046;-76
2022/08/29 06:23:52;;;;;;;21.35;13.63;;;;;;;16.51;94.53;96558.78;4990810;28;20387;-75
2022/08/29 06:26:19;;;;;;;21.95;13.50;;;;;;;16.58;94.62;96558.97;4989907;28;20046;-75
2022/08/29 06:28:46;;;;;;;27.83;15.23;;;;;;;16.58;94.42;96558.16;4990784;28;20564;-76
2022/08/29 06:31:15;;;;;;;26.15;15.45;;;;;;;16.45;96.50;96557.44;4992808;28;20375;-76
2022/08/29 06:33:43;;;;;;;21.10;13.35;;;;;;;16.58;97.21;96552.66;4994377;28;20043;-77
2022/08/29 06:36:10;;;;;;;35.03;18.13;;;;;;;16.68;97.62;96557.66;4993507;28;20061;-76
2022/08/29 06:38:37;;;;;;;28.60;16.70;;;;;;;16.86;97.11;96556.22;4993862;28;20608;-76
2022/08/29 06:41:03;;;;;;;29.33;15.68;;;;;;;16.94;96.57;96560.72;4993783;28;20038;-76
2022/08/29 06:43:30;;;;;;;29.02;16.90;;;;;;;17.05;96.21;96560.22;4993726;28;20050;-76
2022/08/29 06:45:56;;;;;;;25.35;15.45;;;;;;;17.04;95.50;96556.66;4993779;28;20043;-76
2022/08/29 06:48:24;;;;;;;27.30;16.50;;;;;;;17.20;95.01;96559.41;4993392;28;20049;-77
2022/08/29 06:50:52;;;;;;;27.17;16.25;;;;;;;17.29;94.83;96553.72;4993659;28;20054;-76
2022/08/29 06:53:19;;;;;;;27.20;17.35;;;;;;;17.19;94.13;96563.31;4992899;28;20100;-76
2022/08/29 06:55:46;;;;;;;26.00;15.40;;;;;;;17.32;93.61;96559.31;4993899;28;20042;-76
2022/08/29 06:58:12;;;;;;;27.45;15.50;;;;;;;17.41;92.57;96561.88;4992877;28;20042;-76
2022/08/29 07:00:39;;;;;;;22.55;14.57;;;;;;;17.47;92.18;96566.75;4993604;28;20053;-76
2022/08/29 07:03:06;;;;;;;28.17;16.08;;;;;;;17.43;91.89;96565.84;4993024;28;20057;-76
2022/08/29 07:05:33;;;;;;;22.13;15.20;;;;;;;17.49;91.54;96574.66;4993106;28;20409;-76
2022/08/29 07:08:00;;;;;;;19.60;13.27;;;;;;;17.49;91.60;96580.19;4993267;28;20066;-76
2022/08/29 07:10:27;;;;;;;18.45;12.43;;;;;;;17.59;91.53;96578.81;4993031;28;20042;-76
2022/08/29 07:12:54;;;;;;;25.23;14.95;;;;;;;17.68;91.47;96577.47;4993060;28;20057;-75
2022/08/29 07:15:22;;;;;;;24.02;14.40;;;;;;;17.75;92.50;96579.63;4992742;28;20054;-76
2022/08/29 07:17:49;;;;;;;21.73;14.07;;;;;;;17.82;91.62;96577.03;4993183;28;20042;-77
2022/08/29 07:20:16;;;;;;;25.40;14.88;;;;;;;17.91;90.67;96579.59;4992752;28;20066;-77
2022/08/29 07:22:44;;;;;;;21.13;14.93;;;;;;;17.89;90.98;96577.16;4992851;28;20042;-77
2022/08/29 07:25:12;;;;;;;22.00;14.85;;;;;;;18.00;89.61;96578.19;4992530;28;20050;-77
2022/08/29 07:27:38;;;;;;;22.48;14.32;;;;;;;18.09;89.03;96574.44;4992404;28;20621;-76
2022/08/29 07:30:05;;;;;;;19.40;13.77;;;;;;;18.18;88.20;96580.56;4992455;28;20065;-76
2022/08/29 07:32:32;;;;;;;21.42;13.05;;;;;;;18.59;87.81;96581.00;4992691;28;20041;-76
2022/08/29 07:34:58;;;;;;;18.48;12.65;;;;;;;19.17;82.96;96591.94;4992926;28;20513;-76
2022/08/29 07:37:25;;;;;;;17.55;11.32;;;;;;;19.69;80.98;96579.41;4992397;28;20046;-77
2022/08/29 07:39:51;;;;;;;18.10;11.52;;;;;;;20.19;79.46;96580.09;4992515;28;20482;-77
2022/08/29 07:42:19;;;;;;;17.33;11.13;;;;;;;20.69;77.64;96578.78;4991076;28;20046;-77
2022/08/29 07:44:46;;;;;;;18.30;12.45;;;;;;;20.98;77.60;96579.84;4992336;28;20046;-76
2022/08/29 07:47:12;;;;;;;17.27;11.82;;;;;;;21.20;74.08;96586.41;4991869;28;20053;-77
2022/08/29 07:49:39;;;;;;;19.98;13.65;;;;;;;21.34;72.90;96591.31;4992507;28;20057;-77
2022/08/29 07:52:05;;;;;;;16.70;11.50;;;;;;;21.54;72.00;96589.91;4991799;28;20054;-78
2022/08/29 07:54:32;;;;;;;18.05;10.82;;;;;;;21.87;74.22;96591.75;4992460;28;20046;-76
2022/08/29 07:56:59;;;;;;;18.65;12.45;;;;;;;22.02;70.16;96586.25;4992304;28;20057;-77
2022/08/29 07:59:27;;;;;;;24.20;13.93;;;;;;;21.89;71.79;96583.81;4991963;28;20061;-77
2022/08/29 08:01:53;;;;;;;16.27;12.05;;;;;;;21.93;72.47;96591.38;4992198;28;20050;-77
2022/08/29 08:04:20;;;;;;;15.98;11.88;;;;;;;22.10;73.37;96593.47;4991651;28;20658;-76
2022/08/29 08:06:46;;;;;;;17.35;12.90;;;;;;;22.12;73.98;96596.66;4992071;28;20038;-76
2022/08/29 08:09:14;;;;;;;17.60;11.98;;;;;;;22.33;72.29;96593.19;4991683;28;20505;-76
2022/08/29 08:11:41;;;;;;;15.98;10.90;;;;;;;22.42;70.79;96595.63;4992116;28;20125;-76
2022/08/29 08:14:08;;;;;;;20.65;14.90;;;;;;;22.38;71.59;96599.16;4991518;28;20046;-76
2022/08/29 08:16:37;;;;;;;17.17;12.18;;;;;;;22.34;70.00;96603.13;4991839;28;20046;-76
2022/08/29 08:19:04;;;;;;;15.98;11.40;;;;;;;22.47;71.23;96604.38;4991426;28;20509;-79
2022/08/29 08:21:31;;;;;;;16.95;11.15;;;;;;;22.60;69.85;96616.75;4991704;28;20580;-78
2022/08/29 08:23:57;;;;;;;16.00;11.30;;;;;;;22.54;68.92;96615.50;4991981;28;20049;-78
2022/08/29 08:26:24;;;;;;;16.73;12.27;;;;;;;22.51;68.15;96624.63;4990920;28;20402;-79
2022/08/29 08:28:50;;;;;;;16.73;12.45;;;;;;;22.22;68.64;96617.31;4991701;28;20053;-78
2022/08/29 08:31:18;;;;;;;16.90;11.85;;;;;;;22.29;69.20;96618.19;4991184;28;20047;-78
2022/08/29 08:33:46;;;;;;;17.33;12.32;;;;;;;22.44;69.44;96624.56;4991660;28;20042;-78
2022/08/29 08:36:15;;;;;;;17.00;11.23;;;;;;;22.49;68.95;96621.41;4991129;28;20134;-75
2022/08/29 08:38:43;;;;;;;19.75;11.73;;;;;;;22.46;67.40;96616.66;4991472;28;20049;-77
2022/08/29 08:41:21;;;;;;;16.15;11.88;;;;;;;22.46;72.03;96611.13;4991127;28;20046;-76
2022/08/29 08:43:52;;;;;;;17.02;11.38;;;;;;;22.10;70.38;96610.91;4991454;28;20553;-76
2022/08/29 08:46:23;;;;;;;17.00;12.75;;;;;;;22.05;70.77;96613.22;4991183;28;20391;-76
2022/08/29 08:48:54;;;;;;;16.83;11.18;;;;;;;22.39;70.44;96614.66;4991502;28;20046;-76
2022/08/29 08:51:26;;;;;;;18.95;12.07;;;;;;;22.63;71.86;96615.94;4990743;28;20138;-79
2022/08/29 08:53:56;;;;;;;20.35;12.50;;;;;;;22.92;73.20;96610.53;4991032;28;20054;-79
2022/08/29 08:56:36;;;;;;;14.65;10.95;;;;;;;23.01;67.08;96619.25;4990982;28;20050;-78
2022/08/29 08:59:09;;;;;;;17.73;11.70;;;;;;;22.84;67.80;96615.22;4990939;28;20042;-77
2022/08/29 09:01:40;;;;;;;14.95;11.20;;;;;;;23.08;67.33;96610.97;4991138;28;20038;-76
2022/08/29 09:04:20;;;;;;;16.40;10.15;;;;;;;23.10;68.29;96616.91;4990662;28;20465;-77
2022/08/29 09:07:11;;;;;;;16.80;9.45;;;;;;;23.32;69.32;96619.72;4991181;28;20049;-76
2022/08/29 09:09:49;;;;;;;18.10;10.82;;;;;;;23.36;66.42;96612.19;4989505;28;20057;-79
2022/08/29 09:12:27;;;;;;;13.55;9.30;;;;;;;23.38;68.06;96612.59;4990426;28;20506;-79
2022/08/29 09:15:02;;;;;;;17.85;11.50;;;;;;;23.51;69.15;96613.81;4991007;28;20074;-78
2022/08/29 09:17:35;;;;;;;13.90;10.90;;;;;;;23.28;65.94;96614.16;4990691;28;20413;-77
2022/08/29 09:20:04;;;;;;;15.82;10.35;;;;;;;23.32;66.83;96616.94;4990572;28;20561;-75
2022/08/29 09:22:31;;;;;;;14.10;9.77;;;;;;;23.37;68.07;96619.34;4990855;28;20053;-77
2022/08/29 09:25:01;;;;;;;14.82;8.73;;;;;;;23.41;67.79;96609.03;5002672;28;20056;-77
2022/08/29 09:27:30;;;;;;;16.23;10.52;;;;;;;23.33;67.61;96621.31;5010474;28;20038;-76
2022/08/29 09:30:04;;;;;;;14.75;9.73;;;;;;;23.37;67.40;96614.56;5010303;28;20046;-77
2022/08/29 09:32:31;;;;;;;15.88;10.93;;;;;;;23.44;66.24;96613.81;5009957;28;20049;-76
2022/08/29 09:34:58;;;;;;;14.23;10.18;;;;;;;23.41;65.74;96614.59;5010353;28;20390;-79
2022/08/29 09:37:30;;;;;;;14.00;10.52;;;;;;;23.55;65.04;96614.59;5009836;28;20064;-77
2022/08/29 09:40:01;;;;;;;14.48;10.25;;;;;;;23.47;65.41;96617.75;5010379;28;20054;-77
2022/08/29 09:42:34;;;;;;;15.00;11.00;;;;;;;23.56;68.12;96616.19;5010067;28;20042;-77
2022/08/29 09:45:07;;;;;;;12.90;9.18;;;;;;;23.46;65.47;96608.63;5010237;28;20054;-77
2022/08/29 09:47:34;;;;;;;14.10;9.82;;;;;;;23.47;66.08;96604.66;5010119;28;20109;-79
2022/08/29 09:50:10;;;;;;;11.68;8.80;;;;;;;23.46;65.33;96605.84;5010119;28;20042;-78
2022/08/29 09:52:40;;;;;;;13.57;9.15;;;;;;;23.57;66.62;96601.09;5009856;28;20041;-76
2022/08/29 09:55:19;;;;;;;15.70;10.10;;;;;;;23.66;64.28;96601.53;4996847;28;20046;-79
2022/08/29 09:57:50;;;;;;;12.32;9.13;;;;;;;23.42;65.01;96602.28;4990775;28;20047;-76
2022/08/29 10:00:24;;;;;;;11.68;9.48;;;;;;;23.31;65.52;96607.81;4990184;28;20049;-77
2022/08/29 10:02:53;;;;;;;13.82;9.38;;;;;;;23.13;66.84;96605.03;4990407;28;20061;-77
2022/08/29 10:05:43;;;;;;;16.38;9.35;;;;;;;23.18;69.73;96609.41;4991067;28;20105;-77
2022/08/29 10:08:29;;;;;;;13.30;9.32;;;;;;;23.38;67.34;96607.03;4992281;28;20055;-77
2022/08/29 10:10:58;;;;;;;14.23;10.02;;;;;;;23.45;66.64;96609.84;4994350;28;20046;-77
2022/08/29 10:13:34;;;;;;;13.93;9.07;;;;;;;23.53;69.24;96603.06;4993656;28;20498;-76
2022/08/29 10:16:09;;;;;;;12.93;9.68;;;;;;;23.76;66.37;96607.50;4994292;28;20047;-77
2022/08/29 10:18:44;;;;;;;14.45;10.27;;;;;;;23.90;69.50;96607.44;4993905;28;20417;-78
2022/08/29 10:21:28;;;;;;;11.98;8.43;;;;;;;24.02;65.00;96604.28;4993570;28;20046;-77
2022/08/29 10:24:09;;;;;;;12.07;9.65;;;;;;;24.14;63.42;96606.63;4994414;28;20501;-77
2022/08/29 10:26:45;;;;;;;15.75;9.55;;;;;;;24.18;68.03;96604.63;4993659;28;20042;-76
2022/08/29 10:29:25;;;;;;;11.32;9.30;;;;;;;24.34;64.58;96603.41;4993545;28;20409;-77
2022/08/29 10:32:00;;;;;;;12.05;8.75;;;;;;;24.46;64.50;96598.22;4994030;28;20043;-78
2022/08/29 10:34:37;;;;;;;13.20;9.20;;;;;;;24.39;62.83;96594.69;4993201;28;20062;-78
2022/08/29 10:37:10;;;;;;;11.95;7.95;;;;;;;24.42;61.56;96593.84;4993412;28;20096;-77
2022/08/29 10:39:47;;;;;;;10.55;8.35;;;;;;;24.24;60.60;96590.31;4993676;28;20053;-79
2022/08/29 10:42:18;;;;;;;11.32;8.18;;;;;;;24.00;62.66;96595.53;4993385;28;20050;-78
2022/08/29 10:44:57;;;;;;;11.48;9.07;;;;;;;23.66;64.33;96592.41;4993601;28;20053;-78
2022/08/29 10:47:33;;;;;;;17.95;10.77;;;;;;;23.40;65.15;96596.34;4993230;28;20050;-77
2022/08/29 10:50:18;;;;;;;13.95;10.75;;;;;;;23.31;65.29;96595.91;4993602;28;20062;-76
2022/08/29 10:52:57;;;;;;;13.95;9.55;;;;;;;23.38;66.14;96599.47;4993351;28;20047;-77
2022/08/29 10:55:39;;;;;;;15.30;10.38;;;;;;;23.07;67.32;96594.69;5008430;28;20045;-77
2022/08/29 10:58:09;;;;;;;12.98;9.82;;;;;;;23.31;66.84;96588.38;5012515;28;20042;-77
2022/08/29 11:00:43;;;;;;;12.73;9.88;;;;;;;23.27;66.94;96586.78;5013057;28;20053;-76
2022/08/29 11:03:21;;;;;;;11.73;9.30;;;;;;;23.23;66.01;96591.53;5012227;28;20054;-76
2022/08/29 11:05:54;;;;;;;14.43;9.63;;;;;;;23.10;66.37;96600.25;5012793;28;20056;-77
2022/08/29 11:08:27;;;;;;;8.80;7.53;;;;;;;23.27;67.30;96597.88;5012231;28;20046;-77
2022/08/29 11:10:55;;;;;;;13.23;9.20;;;;;;;23.28;65.85;96605.03;5011193;28;20046;-77
2022/08/29 11:13:26;;;;;;;11.82;9.40;;;;;;;23.36;66.74;96598.31;5011977;28;20056;-76
2022/08/29 11:16:03;;;;;;;16.10;10.82;;;;;;;23.42;64.46;96593.94;5012600;28;20045;-77
2022/08/29 11:18:35;;;;;;;10.93;9.00;;;;;;;23.42;66.03;96593.94;5012074;28;20073;-76
2022/08/29 11:21:16;;;;;;;14.38;8.93;;;;;;;23.40;65.65;96597.13;5012056;28;20046;-76
2022/08/29 11:23:45;;;;;;;12.27;9.50;;;;;;;23.27;66.66;96593.13;5010862;28;20112;-79
2022/08/29 11:26:24;;;;;;;14.93;10.80;;;;;;;23.34;68.68;96592.34;4992194;28;20066;-76
2022/08/29 11:28:57;;;;;;;13.27;10.55;;;;;;;23.32;68.43;96589.97;4992787;28;20053;-79
2022/08/29 11:31:36;;;;;;;18.58;11.13;;;;;;;23.40;68.57;96588.00;4992370;28;20047;-76
2022/08/29 11:34:15;;;;;;;14.07;9.07;;;;;;;23.45;68.06;96587.59;4992260;28;20046;-78
2022/08/29 11:36:56;;;;;;;15.02;11.80;;;;;;;23.35;66.79;96582.81;4992656;28;20050;-77